Main page
Satellite images 15-day forecastsClimateMarine weather Cyclones Lightning AirportsFAQ Newsletter About
Weather : Europe Africa North America South America Asia Australia-Oceania Others
Languages Contact

Lisbon, Portugal

Portela

latitude: 38-46N, longitude: 009-08W, elevation: 114 m


METAR: LPPT 250100Z 05002KT CAVOK 19/16 Q1015
TAF: LPPT 242300Z 2500/2606 06008KT CAVOK BECMG 2511/2514 16005KT PROB40 2519/2524 35008KT BECMG 2600/2602 07005KT

Time: 02:26 (01:26 UTC)

Current weather observation

The report was made 26 minutes ago, at 01:00 UTC
Wind 2 kt from the Northeast
Temperature 19°C
Humidity 83%
Pressure 1015 hPa
Visibility 10 km or more
no clouds below 1500 m and no cumulonimbus

Change units

Forecast

The report was made 2 hours and 26 minutes ago, at 23:00 UTC
Forecast valid from 25 at 00 UTC to 26 at 06 UTC
Wind 8 kt from the East/Northeast
Visibility 10 km or more
no clouds below 1500 m and no cumulonimbus
Becoming
from 25 at 11 UTC to 25 at 14 UTC
Wind 5 kt from the South/Southeast
Probability 40%
from 25 at 19 UTC to 25 at 24 UTC
Wind 8 kt from the North
Becoming
from 26 at 00 UTC to 26 at 02 UTC
Wind 5 kt from the East/Northeast
The information on this site is subject to a disclaimer
Weather : Europe Africa North America South America Asia Australia-Oceania Others
Satellite images 15-day forecastsClimateMarine weather Cyclones Lightning AirportsFAQ Languages Contact Newsletter About